sensor_id;sensor_type;location;lat;lon;timestamp;P1;durP1;ratioP1;P2;durP2;ratioP2
67100;SDS011;54019;61.746;16.106;2022-09-03T00:02:27;4.05;;;0.30;;
67100;SDS011;54019;61.746;16.106;2022-09-03T00:04:59;0.65;;;0.38;;
67100;SDS011;54019;61.746;16.106;2022-09-03T00:07:31;0.85;;;0.20;;
67100;SDS011;54019;61.746;16.106;2022-09-03T00:10:07;1.65;;;0.10;;
67100;SDS011;54019;61.746;16.106;2022-09-03T00:12:36;1.23;;;0.20;;
67100;SDS011;54019;61.746;16.106;2022-09-03T00:15:06;2.13;;;0.22;;
67100;SDS011;54019;61.746;16.106;2022-09-03T00:17:37;0.10;;;0.10;;
67100;SDS011;54019;61.746;16.106;2022-09-03T00:20:07;0.47;;;0.28;;
67100;SDS011;54019;61.746;16.106;2022-09-03T00:22:38;0.90;;;0.20;;
67100;SDS011;54019;61.746;16.106;2022-09-03T00:25:08;1.35;;;0.20;;
67100;SDS011;54019;61.746;16.106;2022-09-03T00:27:37;2.10;;;0.20;;
67100;SDS011;54019;61.746;16.106;2022-09-03T00:30:08;0.35;;;0.20;;
67100;SDS011;54019;61.746;16.106;2022-09-03T00:32:37;0.20;;;0.20;;
67100;SDS011;54019;61.746;16.106;2022-09-03T00:35:08;0.70;;;0.13;;
67100;SDS011;54019;61.746;16.106;2022-09-03T00:37:38;0.30;;;0.20;;
67100;SDS011;54019;61.746;16.106;2022-09-03T00:40:05;0.40;;;0.20;;
67100;SDS011;54019;61.746;16.106;2022-09-03T00:42:42;0.60;;;0.17;;
67100;SDS011;54019;61.746;16.106;2022-09-03T00:45:19;0.57;;;0.20;;
67100;SDS011;54019;61.746;16.106;2022-09-03T00:47:59;2.38;;;0.20;;
67100;SDS011;54019;61.746;16.106;2022-09-03T00:50:35;0.65;;;0.20;;
67100;SDS011;54019;61.746;16.106;2022-09-03T00:53:11;0.00;;;0.00;;
67100;SDS011;54019;61.746;16.106;2022-09-03T00:55:46;0.32;;;0.20;;
67100;SDS011;54019;61.746;16.106;2022-09-03T00:58:22;0.20;;;0.10;;
67100;SDS011;54019;61.746;16.106;2022-09-03T01:01:09;0.10;;;0.10;;
67100;SDS011;54019;61.746;16.106;2022-09-03T01:03:41;0.20;;;0.20;;
67100;SDS011;54019;61.746;16.106;2022-09-03T01:06:16;0.10;;;0.10;;
67100;SDS011;54019;61.746;16.106;2022-09-03T01:08:52;1.05;;;0.30;;
67100;SDS011;54019;61.746;16.106;2022-09-03T01:11:35;3.22;;;0.40;;
67100;SDS011;54019;61.746;16.106;2022-09-03T01:14:10;2.47;;;0.30;;
67100;SDS011;54019;61.746;16.106;2022-09-03T01:16:48;1.90;;;0.28;;
67100;SDS011;54019;61.746;16.106;2022-09-03T01:19:24;2.28;;;0.30;;
67100;SDS011;54019;61.746;16.106;2022-09-03T01:22:24;1.48;;;0.20;;
67100;SDS011;54019;61.746;16.106;2022-09-03T01:25:08;1.58;;;0.20;;
67100;SDS011;54019;61.746;16.106;2022-09-03T01:27:42;0.30;;;0.20;;
67100;SDS011;54019;61.746;16.106;2022-09-03T01:30:16;4.97;;;0.45;;
67100;SDS011;54019;61.746;16.106;2022-09-03T01:32:44;0.17;;;0.10;;
67100;SDS011;54019;61.746;16.106;2022-09-03T01:35:17;0.15;;;0.10;;
67100;SDS011;54019;61.746;16.106;2022-09-03T01:37:52;1.23;;;0.22;;
67100;SDS011;54019;61.746;16.106;2022-09-03T01:40:28;1.00;;;0.15;;
67100;SDS011;54019;61.746;16.106;2022-09-03T01:43:07;2.92;;;0.20;;
67100;SDS011;54019;61.746;16.106;2022-09-03T01:45:51;0.30;;;0.20;;
67100;SDS011;54019;61.746;16.106;2022-09-03T01:48:21;1.65;;;0.40;;
67100;SDS011;54019;61.746;16.106;2022-09-03T01:50:57;2.55;;;0.20;;
67100;SDS011;54019;61.746;16.106;2022-09-03T01:53:37;2.85;;;0.10;;
67100;SDS011;54019;61.746;16.106;2022-09-03T01:56:18;0.20;;;0.17;;
67100;SDS011;54019;61.746;16.106;2022-09-03T01:58:53;0.45;;;0.20;;
67100;SDS011;54019;61.746;16.106;2022-09-03T02:01:28;0.55;;;0.17;;
67100;SDS011;54019;61.746;16.106;2022-09-03T02:03:57;0.47;;;0.20;;
67100;SDS011;54019;61.746;16.106;2022-09-03T02:06:24;0.75;;;0.20;;
67100;SDS011;54019;61.746;16.106;2022-09-03T02:08:50;0.93;;;0.20;;
67100;SDS011;54019;61.746;16.106;2022-09-03T02:11:16;1.95;;;0.15;;
67100;SDS011;54019;61.746;16.106;2022-09-03T02:13:42;0.52;;;0.20;;
67100;SDS011;54019;61.746;16.106;2022-09-03T02:16:12;0.20;;;0.10;;
67100;SDS011;54019;61.746;16.106;2022-09-03T02:18:43;0.30;;;0.20;;
67100;SDS011;54019;61.746;16.106;2022-09-03T02:21:12;0.82;;;0.20;;
67100;SDS011;54019;61.746;16.106;2022-09-03T02:23:41;1.27;;;0.30;;
67100;SDS011;54019;61.746;16.106;2022-09-03T02:26:07;1.45;;;0.10;;
67100;SDS011;54019;61.746;16.106;2022-09-03T02:28:35;1.95;;;0.20;;
67100;SDS011;54019;61.746;16.106;2022-09-03T02:31:01;0.93;;;0.17;;
67100;SDS011;54019;61.746;16.106;2022-09-03T02:33:35;5.97;;;0.30;;
67100;SDS011;54019;61.746;16.106;2022-09-03T02:36:05;0.20;;;0.13;;
67100;SDS011;54019;61.746;16.106;2022-09-03T02:38:34;1.65;;;0.20;;
67100;SDS011;54019;61.746;16.106;2022-09-03T02:41:00;0.52;;;0.20;;
67100;SDS011;54019;61.746;16.106;2022-09-03T02:43:29;0.65;;;0.20;;
67100;SDS011;54019;61.746;16.106;2022-09-03T02:46:00;1.27;;;0.25;;
67100;SDS011;54019;61.746;16.106;2022-09-03T02:48:27;1.58;;;0.30;;
67100;SDS011;54019;61.746;16.106;2022-09-03T02:50:53;0.43;;;0.20;;
67100;SDS011;54019;61.746;16.106;2022-09-03T02:53:20;0.77;;;0.20;;
67100;SDS011;54019;61.746;16.106;2022-09-03T02:55:46;0.77;;;0.20;;
67100;SDS011;54019;61.746;16.106;2022-09-03T02:58:12;1.65;;;0.10;;
67100;SDS011;54019;61.746;16.106;2022-09-03T03:00:38;0.57;;;0.13;;
67100;SDS011;54019;61.746;16.106;2022-09-03T03:03:04;0.73;;;0.13;;
67100;SDS011;54019;61.746;16.106;2022-09-03T03:05:31;0.98;;;0.28;;
67100;SDS011;54019;61.746;16.106;2022-09-03T03:08:08;3.05;;;0.10;;
67100;SDS011;54019;61.746;16.106;2022-09-03T03:10:36;1.55;;;0.30;;
67100;SDS011;54019;61.746;16.106;2022-09-03T03:13:02;0.47;;;0.30;;
67100;SDS011;54019;61.746;16.106;2022-09-03T03:15:28;0.57;;;0.30;;
67100;SDS011;54019;61.746;16.106;2022-09-03T03:17:54;0.20;;;0.10;;
67100;SDS011;54019;61.746;16.106;2022-09-03T03:20:21;0.52;;;0.15;;
67100;SDS011;54019;61.746;16.106;2022-09-03T03:22:47;2.70;;;0.38;;
67100;SDS011;54019;61.746;16.106;2022-09-03T03:25:14;0.88;;;0.20;;
67100;SDS011;54019;61.746;16.106;2022-09-03T03:27:41;0.55;;;0.10;;
67100;SDS011;54019;61.746;16.106;2022-09-03T03:30:08;0.93;;;0.17;;
67100;SDS011;54019;61.746;16.106;2022-09-03T03:32:35;1.80;;;0.20;;
67100;SDS011;54019;61.746;16.106;2022-09-03T03:35:01;0.10;;;0.10;;
67100;SDS011;54019;61.746;16.106;2022-09-03T03:37:27;0.52;;;0.10;;
67100;SDS011;54019;61.746;16.106;2022-09-03T03:39:54;5.57;;;0.28;;
67100;SDS011;54019;61.746;16.106;2022-09-03T03:42:20;0.38;;;0.13;;
67100;SDS011;54019;61.746;16.106;2022-09-03T03:44:47;0.30;;;0.10;;
67100;SDS011;54019;61.746;16.106;2022-09-03T03:47:13;0.68;;;0.20;;
67100;SDS011;54019;61.746;16.106;2022-09-03T03:49:39;1.33;;;0.17;;
67100;SDS011;54019;61.746;16.106;2022-09-03T03:52:05;1.55;;;0.22;;
67100;SDS011;54019;61.746;16.106;2022-09-03T03:54:31;0.30;;;0.10;;
67100;SDS011;54019;61.746;16.106;2022-09-03T03:56:56;0.47;;;0.20;;
67100;SDS011;54019;61.746;16.106;2022-09-03T03:59:22;0.85;;;0.22;;
67100;SDS011;54019;61.746;16.106;2022-09-03T04:01:49;0.88;;;0.20;;
67100;SDS011;54019;61.746;16.106;2022-09-03T04:04:15;0.70;;;0.30;;
67100;SDS011;54019;61.746;16.106;2022-09-03T04:06:41;0.73;;;0.20;;
67100;SDS011;54019;61.746;16.106;2022-09-03T04:09:07;1.67;;;0.15;;
67100;SDS011;54019;61.746;16.106;2022-09-03T04:11:33;0.57;;;0.20;;
67100;SDS011;54019;61.746;16.106;2022-09-03T04:14:01;2.05;;;0.20;;
67100;SDS011;54019;61.746;16.106;2022-09-03T04:16:26;1.30;;;0.20;;
67100;SDS011;54019;61.746;16.106;2022-09-03T04:18:54;1.73;;;0.20;;
67100;SDS011;54019;61.746;16.106;2022-09-03T04:21:21;2.33;;;0.30;;
67100;SDS011;54019;61.746;16.106;2022-09-03T04:23:49;0.50;;;0.10;;
67100;SDS011;54019;61.746;16.106;2022-09-03T04:26:16;6.10;;;0.60;;
67100;SDS011;54019;61.746;16.106;2022-09-03T04:28:43;1.25;;;0.20;;
67100;SDS011;54019;61.746;16.106;2022-09-03T04:31:09;4.15;;;0.30;;
67100;SDS011;54019;61.746;16.106;2022-09-03T04:33:37;0.88;;;0.30;;
67100;SDS011;54019;61.746;16.106;2022-09-03T04:36:07;3.00;;;0.40;;
67100;SDS011;54019;61.746;16.106;2022-09-03T04:38:34;1.63;;;0.20;;
67100;SDS011;54019;61.746;16.106;2022-09-03T04:41:01;2.60;;;0.20;;
67100;SDS011;54019;61.746;16.106;2022-09-03T04:43:28;5.57;;;0.65;;
67100;SDS011;54019;61.746;16.106;2022-09-03T04:45:57;0.85;;;0.20;;
67100;SDS011;54019;61.746;16.106;2022-09-03T04:48:23;2.45;;;0.25;;
67100;SDS011;54019;61.746;16.106;2022-09-03T04:50:49;3.83;;;0.20;;
67100;SDS011;54019;61.746;16.106;2022-09-03T04:53:16;2.30;;;0.20;;
67100;SDS011;54019;61.746;16.106;2022-09-03T04:55:42;8.77;;;0.60;;
67100;SDS011;54019;61.746;16.106;2022-09-03T04:58:08;7.32;;;0.70;;
67100;SDS011;54019;61.746;16.106;2022-09-03T05:00:34;11.65;;;0.60;;
67100;SDS011;54019;61.746;16.106;2022-09-03T05:03:00;9.38;;;1.08;;
67100;SDS011;54019;61.746;16.106;2022-09-03T05:05:26;7.55;;;0.85;;
67100;SDS011;54019;61.746;16.106;2022-09-03T05:07:52;5.20;;;0.60;;
67100;SDS011;54019;61.746;16.106;2022-09-03T05:10:23;5.00;;;0.50;;
67100;SDS011;54019;61.746;16.106;2022-09-03T05:12:56;3.22;;;0.45;;
67100;SDS011;54019;61.746;16.106;2022-09-03T05:15:22;11.07;;;0.55;;
67100;SDS011;54019;61.746;16.106;2022-09-03T05:17:48;1.55;;;0.30;;
67100;SDS011;54019;61.746;16.106;2022-09-03T05:20:14;4.03;;;0.45;;
67100;SDS011;54019;61.746;16.106;2022-09-03T05:22:40;4.95;;;0.43;;
67100;SDS011;54019;61.746;16.106;2022-09-03T05:25:06;5.28;;;0.45;;
67100;SDS011;54019;61.746;16.106;2022-09-03T05:27:33;4.20;;;0.55;;
67100;SDS011;54019;61.746;16.106;2022-09-03T05:29:59;2.92;;;0.30;;
67100;SDS011;54019;61.746;16.106;2022-09-03T05:32:25;7.45;;;0.40;;
67100;SDS011;54019;61.746;16.106;2022-09-03T05:34:54;5.35;;;0.28;;
67100;SDS011;54019;61.746;16.106;2022-09-03T05:37:19;8.60;;;0.63;;
67100;SDS011;54019;61.746;16.106;2022-09-03T05:39:45;1.85;;;0.52;;
67100;SDS011;54019;61.746;16.106;2022-09-03T05:42:11;3.42;;;0.47;;
67100;SDS011;54019;61.746;16.106;2022-09-03T05:44:38;3.15;;;0.60;;
67100;SDS011;54019;61.746;16.106;2022-09-03T05:47:07;3.83;;;0.40;;
67100;SDS011;54019;61.746;16.106;2022-09-03T05:49:33;5.03;;;0.80;;
67100;SDS011;54019;61.746;16.106;2022-09-03T05:51:59;4.35;;;0.85;;
67100;SDS011;54019;61.746;16.106;2022-09-03T05:54:25;7.78;;;1.17;;
67100;SDS011;54019;61.746;16.106;2022-09-03T05:56:50;9.50;;;0.90;;
67100;SDS011;54019;61.746;16.106;2022-09-03T05:59:16;41.28;;;8.88;;
67100;SDS011;54019;61.746;16.106;2022-09-03T06:01:44;20.92;;;3.72;;
67100;SDS011;54019;61.746;16.106;2022-09-03T06:04:11;11.23;;;3.05;;
67100;SDS011;54019;61.746;16.106;2022-09-03T06:06:39;15.13;;;2.78;;
67100;SDS011;54019;61.746;16.106;2022-09-03T06:09:06;16.98;;;2.90;;
67100;SDS011;54019;61.746;16.106;2022-09-03T06:11:33;9.88;;;2.35;;
67100;SDS011;54019;61.746;16.106;2022-09-03T06:14:02;12.55;;;2.67;;
67100;SDS011;54019;61.746;16.106;2022-09-03T06:16:30;10.13;;;2.25;;
67100;SDS011;54019;61.746;16.106;2022-09-03T06:18:58;10.75;;;2.58;;
67100;SDS011;54019;61.746;16.106;2022-09-03T06:21:24;5.47;;;1.52;;
67100;SDS011;54019;61.746;16.106;2022-09-03T06:23:50;7.30;;;1.95;;
67100;SDS011;54019;61.746;16.106;2022-09-03T06:26:17;11.93;;;2.00;;
67100;SDS011;54019;61.746;16.106;2022-09-03T06:28:44;10.55;;;1.98;;
67100;SDS011;54019;61.746;16.106;2022-09-03T06:31:11;7.45;;;1.75;;
67100;SDS011;54019;61.746;16.106;2022-09-03T06:33:39;5.82;;;1.50;;
67100;SDS011;54019;61.746;16.106;2022-09-03T06:36:07;3.85;;;1.13;;
67100;SDS011;54019;61.746;16.106;2022-09-03T06:38:36;5.40;;;1.50;;
67100;SDS011;54019;61.746;16.106;2022-09-03T06:41:02;8.70;;;1.85;;
67100;SDS011;54019;61.746;16.106;2022-09-03T06:43:30;6.78;;;1.45;;
67100;SDS011;54019;61.746;16.106;2022-09-03T06:45:57;7.00;;;1.70;;
67100;SDS011;54019;61.746;16.106;2022-09-03T06:48:24;4.78;;;1.30;;
67100;SDS011;54019;61.746;16.106;2022-09-03T06:50:55;7.28;;;1.15;;
67100;SDS011;54019;61.746;16.106;2022-09-03T06:53:24;3.95;;;0.90;;
67100;SDS011;54019;61.746;16.106;2022-09-03T06:55:54;4.97;;;1.27;;
67100;SDS011;54019;61.746;16.106;2022-09-03T06:58:20;4.88;;;1.40;;
67100;SDS011;54019;61.746;16.106;2022-09-03T07:00:46;4.07;;;1.20;;
67100;SDS011;54019;61.746;16.106;2022-09-03T07:03:12;6.35;;;1.40;;
67100;SDS011;54019;61.746;16.106;2022-09-03T07:05:38;1.83;;;0.93;;
67100;SDS011;54019;61.746;16.106;2022-09-03T07:08:04;2.35;;;1.08;;
67100;SDS011;54019;61.746;16.106;2022-09-03T07:10:31;3.58;;;0.93;;
67100;SDS011;54019;61.746;16.106;2022-09-03T07:13:00;2.67;;;0.90;;
67100;SDS011;54019;61.746;16.106;2022-09-03T07:15:26;13.45;;;1.88;;
67100;SDS011;54019;61.746;16.106;2022-09-03T07:17:51;6.18;;;1.27;;
67100;SDS011;54019;61.746;16.106;2022-09-03T07:20:17;6.10;;;1.27;;
67100;SDS011;54019;61.746;16.106;2022-09-03T07:22:43;11.82;;;1.75;;
67100;SDS011;54019;61.746;16.106;2022-09-03T07:25:09;8.65;;;1.20;;
67100;SDS011;54019;61.746;16.106;2022-09-03T07:27:36;6.15;;;1.20;;
67100;SDS011;54019;61.746;16.106;2022-09-03T07:30:02;13.10;;;1.48;;
67100;SDS011;54019;61.746;16.106;2022-09-03T07:32:29;7.63;;;1.15;;
67100;SDS011;54019;61.746;16.106;2022-09-03T07:34:54;8.65;;;1.20;;
67100;SDS011;54019;61.746;16.106;2022-09-03T07:37:20;5.03;;;0.80;;
67100;SDS011;54019;61.746;16.106;2022-09-03T07:39:46;4.50;;;0.63;;
67100;SDS011;54019;61.746;16.106;2022-09-03T07:42:12;4.20;;;0.77;;
67100;SDS011;54019;61.746;16.106;2022-09-03T07:44:39;7.25;;;0.73;;
67100;SDS011;54019;61.746;16.106;2022-09-03T07:47:05;7.63;;;1.08;;
67100;SDS011;54019;61.746;16.106;2022-09-03T07:49:31;3.78;;;0.65;;
67100;SDS011;54019;61.746;16.106;2022-09-03T07:51:57;2.78;;;0.60;;
67100;SDS011;54019;61.746;16.106;2022-09-03T07:54:22;6.15;;;0.95;;
67100;SDS011;54019;61.746;16.106;2022-09-03T07:56:48;2.15;;;0.68;;
67100;SDS011;54019;61.746;16.106;2022-09-03T07:59:14;2.25;;;0.50;;
67100;SDS011;54019;61.746;16.106;2022-09-03T08:01:41;2.78;;;0.50;;
67100;SDS011;54019;61.746;16.106;2022-09-03T08:04:07;3.50;;;0.60;;
67100;SDS011;54019;61.746;16.106;2022-09-03T08:06:33;2.70;;;0.47;;
67100;SDS011;54019;61.746;16.106;2022-09-03T08:09:00;1.98;;;0.50;;
67100;SDS011;54019;61.746;16.106;2022-09-03T08:11:28;1.88;;;0.50;;
67100;SDS011;54019;61.746;16.106;2022-09-03T08:13:55;0.85;;;0.55;;
67100;SDS011;54019;61.746;16.106;2022-09-03T08:16:22;0.93;;;0.50;;
67100;SDS011;54019;61.746;16.106;2022-09-03T08:18:49;3.10;;;0.60;;
67100;SDS011;54019;61.746;16.106;2022-09-03T08:21:16;4.18;;;0.50;;
67100;SDS011;54019;61.746;16.106;2022-09-03T08:23:44;1.85;;;0.40;;
67100;SDS011;54019;61.746;16.106;2022-09-03T08:28:54;48.92;;;7.85;;
67100;SDS011;54019;61.746;16.106;2022-09-03T08:31:21;88.05;;;15.65;;
67100;SDS011;54019;61.746;16.106;2022-09-03T08:33:48;82.25;;;16.23;;
67100;SDS011;54019;61.746;16.106;2022-09-03T08:36:16;61.65;;;13.30;;
67100;SDS011;54019;61.746;16.106;2022-09-03T08:38:45;58.85;;;11.48;;
67100;SDS011;54019;61.746;16.106;2022-09-03T08:41:11;56.75;;;10.40;;
67100;SDS011;54019;61.746;16.106;2022-09-03T08:46:40;44.55;;;8.18;;
67100;SDS011;54019;61.746;16.106;2022-09-03T08:49:15;37.70;;;8.48;;
67100;SDS011;54019;61.746;16.106;2022-09-03T08:51:46;38.05;;;7.63;;
67100;SDS011;54019;61.746;16.106;2022-09-03T08:54:14;34.83;;;7.68;;
67100;SDS011;54019;61.746;16.106;2022-09-03T08:56:42;26.52;;;6.40;;
67100;SDS011;54019;61.746;16.106;2022-09-03T08:59:08;28.95;;;4.95;;
67100;SDS011;54019;61.746;16.106;2022-09-03T09:01:36;14.95;;;3.88;;
67100;SDS011;54019;61.746;16.106;2022-09-03T09:04:17;21.92;;;3.65;;
67100;SDS011;54019;61.746;16.106;2022-09-03T09:06:51;11.68;;;2.15;;
67100;SDS011;54019;61.746;16.106;2022-09-03T09:09:23;17.10;;;2.03;;
67100;SDS011;54019;61.746;16.106;2022-09-03T09:12:02;9.10;;;1.90;;
67100;SDS011;54019;61.746;16.106;2022-09-03T09:14:36;15.43;;;1.90;;
67100;SDS011;54019;61.746;16.106;2022-09-03T09:17:12;15.32;;;2.75;;
67100;SDS011;54019;61.746;16.106;2022-09-03T09:20:05;13.50;;;1.67;;
67100;SDS011;54019;61.746;16.106;2022-09-03T09:22:39;9.02;;;1.75;;
67100;SDS011;54019;61.746;16.106;2022-09-03T09:25:09;10.75;;;1.67;;
67100;SDS011;54019;61.746;16.106;2022-09-03T09:27:40;5.38;;;2.00;;
67100;SDS011;54019;61.746;16.106;2022-09-03T09:30:11;8.32;;;1.67;;
67100;SDS011;54019;61.746;16.106;2022-09-03T09:32:39;9.40;;;1.35;;
67100;SDS011;54019;61.746;16.106;2022-09-03T09:35:08;7.57;;;1.00;;
67100;SDS011;54019;61.746;16.106;2022-09-03T09:37:44;8.77;;;1.15;;
67100;SDS011;54019;61.746;16.106;2022-09-03T09:40:20;4.13;;;0.85;;
67100;SDS011;54019;61.746;16.106;2022-09-03T09:42:48;2.35;;;1.23;;
67100;SDS011;54019;61.746;16.106;2022-09-03T09:45:14;9.05;;;1.00;;
67100;SDS011;54019;61.746;16.106;2022-09-03T09:47:40;7.70;;;1.13;;
67100;SDS011;54019;61.746;16.106;2022-09-03T09:50:16;5.30;;;1.10;;
67100;SDS011;54019;61.746;16.106;2022-09-03T09:52:44;7.25;;;1.17;;
67100;SDS011;54019;61.746;16.106;2022-09-03T09:55:12;6.10;;;1.30;;
67100;SDS011;54019;61.746;16.106;2022-09-03T09:57:40;7.55;;;0.98;;
67100;SDS011;54019;61.746;16.106;2022-09-03T10:00:06;4.88;;;1.02;;
67100;SDS011;54019;61.746;16.106;2022-09-03T10:02:34;5.97;;;0.90;;
67100;SDS011;54019;61.746;16.106;2022-09-03T10:05:00;15.05;;;1.30;;
67100;SDS011;54019;61.746;16.106;2022-09-03T10:07:39;5.63;;;1.00;;
67100;SDS011;54019;61.746;16.106;2022-09-03T10:10:06;4.45;;;1.10;;
67100;SDS011;54019;61.746;16.106;2022-09-03T10:12:40;2.35;;;0.90;;
67100;SDS011;54019;61.746;16.106;2022-09-03T10:15:11;5.82;;;0.80;;
67100;SDS011;54019;61.746;16.106;2022-09-03T10:17:48;0.65;;;0.50;;
67100;SDS011;54019;61.746;16.106;2022-09-03T10:20:21;8.38;;;1.10;;
67100;SDS011;54019;61.746;16.106;2022-09-03T10:22:54;8.30;;;0.90;;
67100;SDS011;54019;61.746;16.106;2022-09-03T10:25:24;4.22;;;0.88;;
67100;SDS011;54019;61.746;16.106;2022-09-03T10:27:54;4.53;;;0.82;;
67100;SDS011;54019;61.746;16.106;2022-09-03T10:30:21;4.80;;;0.98;;
67100;SDS011;54019;61.746;16.106;2022-09-03T10:33:00;5.15;;;0.70;;
67100;SDS011;54019;61.746;16.106;2022-09-03T10:35:36;5.65;;;0.90;;
67100;SDS011;54019;61.746;16.106;2022-09-03T10:38:09;8.23;;;1.35;;
67100;SDS011;54019;61.746;16.106;2022-09-03T10:40:43;8.18;;;0.82;;
67100;SDS011;54019;61.746;16.106;2022-09-03T10:43:21;11.10;;;1.00;;
67100;SDS011;54019;61.746;16.106;2022-09-03T10:46:05;11.15;;;1.10;;
67100;SDS011;54019;61.746;16.106;2022-09-03T10:48:39;11.17;;;1.00;;
67100;SDS011;54019;61.746;16.106;2022-09-03T10:51:25;6.97;;;1.30;;
67100;SDS011;54019;61.746;16.106;2022-09-03T10:54:01;21.63;;;1.40;;
67100;SDS011;54019;61.746;16.106;2022-09-03T10:56:44;14.25;;;1.20;;
67100;SDS011;54019;61.746;16.106;2022-09-03T10:59:27;13.35;;;1.15;;
67100;SDS011;54019;61.746;16.106;2022-09-03T11:02:04;12.75;;;1.20;;
67100;SDS011;54019;61.746;16.106;2022-09-03T11:04:45;6.65;;;0.90;;
67100;SDS011;54019;61.746;16.106;2022-09-03T11:07:19;9.43;;;1.27;;
67100;SDS011;54019;61.746;16.106;2022-09-03T11:09:50;8.70;;;0.82;;
67100;SDS011;54019;61.746;16.106;2022-09-03T11:12:21;6.47;;;0.90;;
67100;SDS011;54019;61.746;16.106;2022-09-03T11:14:51;9.52;;;0.98;;
67100;SDS011;54019;61.746;16.106;2022-09-03T11:17:22;9.45;;;0.98;;
67100;SDS011;54019;61.746;16.106;2022-09-03T11:19:53;6.57;;;0.80;;
67100;SDS011;54019;61.746;16.106;2022-09-03T11:22:22;5.85;;;0.70;;
67100;SDS011;54019;61.746;16.106;2022-09-03T11:24:52;4.60;;;0.73;;
67100;SDS011;54019;61.746;16.106;2022-09-03T11:27:23;4.95;;;0.50;;
67100;SDS011;54019;61.746;16.106;2022-09-03T11:29:58;5.43;;;0.65;;
67100;SDS011;54019;61.746;16.106;2022-09-03T11:32:29;9.27;;;0.70;;
67100;SDS011;54019;61.746;16.106;2022-09-03T11:35:11;3.40;;;0.60;;
67100;SDS011;54019;61.746;16.106;2022-09-03T11:37:44;2.47;;;0.63;;
67100;SDS011;54019;61.746;16.106;2022-09-03T11:40:16;2.70;;;0.57;;
67100;SDS011;54019;61.746;16.106;2022-09-03T11:42:42;3.35;;;0.75;;
67100;SDS011;54019;61.746;16.106;2022-09-03T11:47:59;3.35;;;0.80;;
67100;SDS011;54019;61.746;16.106;2022-09-03T11:50:25;2.95;;;0.50;;
67100;SDS011;54019;61.746;16.106;2022-09-03T11:52:53;2.17;;;0.70;;
67100;SDS011;54019;61.746;16.106;2022-09-03T11:55:33;1.70;;;0.50;;
67100;SDS011;54019;61.746;16.106;2022-09-03T11:58:18;1.88;;;0.40;;
67100;SDS011;54019;61.746;16.106;2022-09-03T12:00:49;3.08;;;0.63;;
67100;SDS011;54019;61.746;16.106;2022-09-03T12:03:15;0.60;;;0.38;;
67100;SDS011;54019;61.746;16.106;2022-09-03T12:05:41;1.40;;;0.43;;
67100;SDS011;54019;61.746;16.106;2022-09-03T12:11:02;0.35;;;0.20;;
67100;SDS011;54019;61.746;16.106;2022-09-03T12:13:43;1.70;;;0.50;;
67100;SDS011;54019;61.746;16.106;2022-09-03T12:16:20;0.77;;;0.30;;
67100;SDS011;54019;61.746;16.106;2022-09-03T12:18:53;1.25;;;0.30;;
67100;SDS011;54019;61.746;16.106;2022-09-03T12:21:24;1.75;;;0.32;;
67100;SDS011;54019;61.746;16.106;2022-09-03T12:23:51;3.45;;;0.40;;
67100;SDS011;54019;61.746;16.106;2022-09-03T12:26:19;2.17;;;0.40;;
67100;SDS011;54019;61.746;16.106;2022-09-03T12:28:47;1.98;;;0.32;;
67100;SDS011;54019;61.746;16.106;2022-09-03T12:31:14;5.05;;;0.50;;
67100;SDS011;54019;61.746;16.106;2022-09-03T12:33:41;5.68;;;0.60;;
67100;SDS011;54019;61.746;16.106;2022-09-03T12:36:07;4.85;;;0.52;;
67100;SDS011;54019;61.746;16.106;2022-09-03T12:38:33;4.78;;;0.85;;
67100;SDS011;54019;61.746;16.106;2022-09-03T12:40:59;4.95;;;0.60;;
67100;SDS011;54019;61.746;16.106;2022-09-03T12:43:28;6.25;;;0.52;;
67100;SDS011;54019;61.746;16.106;2022-09-03T12:45:54;5.45;;;0.52;;
67100;SDS011;54019;61.746;16.106;2022-09-03T12:48:20;7.22;;;0.68;;
67100;SDS011;54019;61.746;16.106;2022-09-03T12:50:47;1.23;;;0.65;;
67100;SDS011;54019;61.746;16.106;2022-09-03T12:53:24;8.00;;;0.80;;
67100;SDS011;54019;61.746;16.106;2022-09-03T12:55:53;7.22;;;1.00;;
67100;SDS011;54019;61.746;16.106;2022-09-03T12:58:21;8.00;;;1.05;;
67100;SDS011;54019;61.746;16.106;2022-09-03T13:00:51;5.80;;;0.77;;
67100;SDS011;54019;61.746;16.106;2022-09-03T13:05:49;22.60;;;1.25;;
67100;SDS011;54019;61.746;16.106;2022-09-03T13:08:17;21.58;;;1.15;;
67100;SDS011;54019;61.746;16.106;2022-09-03T13:10:49;18.35;;;1.25;;
67100;SDS011;54019;61.746;16.106;2022-09-03T13:13:19;14.43;;;1.23;;
67100;SDS011;54019;61.746;16.106;2022-09-03T13:16:11;16.00;;;1.55;;
67100;SDS011;54019;61.746;16.106;2022-09-03T13:18:53;13.75;;;1.02;;
67100;SDS011;54019;61.746;16.106;2022-09-03T13:23:59;22.48;;;1.63;;
67100;SDS011;54019;61.746;16.106;2022-09-03T13:26:40;10.68;;;1.08;;
67100;SDS011;54019;61.746;16.106;2022-09-03T13:29:22;10.65;;;1.10;;
67100;SDS011;54019;61.746;16.106;2022-09-03T13:32:01;10.75;;;0.75;;
67100;SDS011;54019;61.746;16.106;2022-09-03T13:34:33;14.98;;;0.93;;
67100;SDS011;54019;61.746;16.106;2022-09-03T13:37:04;8.80;;;0.98;;
67100;SDS011;54019;61.746;16.106;2022-09-03T13:39:42;9.80;;;0.73;;
67100;SDS011;54019;61.746;16.106;2022-09-03T13:42:14;3.15;;;0.40;;
67100;SDS011;54019;61.746;16.106;2022-09-03T13:44:46;7.95;;;0.77;;
67100;SDS011;54019;61.746;16.106;2022-09-03T13:47:18;10.07;;;1.10;;
67100;SDS011;54019;61.746;16.106;2022-09-03T13:49:54;8.20;;;0.85;;
67100;SDS011;54019;61.746;16.106;2022-09-03T13:52:26;7.28;;;0.85;;
67100;SDS011;54019;61.746;16.106;2022-09-03T13:54:59;8.00;;;1.10;;
67100;SDS011;54019;61.746;16.106;2022-09-03T13:57:32;12.05;;;0.70;;
67100;SDS011;54019;61.746;16.106;2022-09-03T14:00:03;5.20;;;0.70;;
67100;SDS011;54019;61.746;16.106;2022-09-03T14:02:36;8.52;;;0.52;;
67100;SDS011;54019;61.746;16.106;2022-09-03T14:05:11;4.68;;;0.60;;
67100;SDS011;54019;61.746;16.106;2022-09-03T14:07:51;7.47;;;0.80;;
67100;SDS011;54019;61.746;16.106;2022-09-03T14:10:27;4.85;;;0.50;;
67100;SDS011;54019;61.746;16.106;2022-09-03T14:13:02;3.13;;;0.50;;
67100;SDS011;54019;61.746;16.106;2022-09-03T14:15:41;7.20;;;0.70;;
67100;SDS011;54019;61.746;16.106;2022-09-03T14:18:14;2.97;;;0.47;;
67100;SDS011;54019;61.746;16.106;2022-09-03T14:20:54;2.25;;;0.60;;
67100;SDS011;54019;61.746;16.106;2022-09-03T14:23:25;3.95;;;0.40;;
67100;SDS011;54019;61.746;16.106;2022-09-03T14:25:59;3.90;;;0.65;;
67100;SDS011;54019;61.746;16.106;2022-09-03T14:28:30;1.27;;;0.50;;
67100;SDS011;54019;61.746;16.106;2022-09-03T14:31:01;5.88;;;0.45;;
67100;SDS011;54019;61.746;16.106;2022-09-03T14:33:38;3.72;;;0.32;;
67100;SDS011;54019;61.746;16.106;2022-09-03T14:36:14;7.70;;;0.93;;
67100;SDS011;54019;61.746;16.106;2022-09-03T14:41:49;2.72;;;0.55;;
67100;SDS011;54019;61.746;16.106;2022-09-03T14:44:58;4.18;;;0.40;;
67100;SDS011;54019;61.746;16.106;2022-09-03T14:47:44;10.18;;;0.75;;
67100;SDS011;54019;61.746;16.106;2022-09-03T14:50:30;8.63;;;0.90;;
67100;SDS011;54019;61.746;16.106;2022-09-03T14:53:08;14.20;;;0.73;;
67100;SDS011;54019;61.746;16.106;2022-09-03T14:55:56;7.57;;;0.80;;
67100;SDS011;54019;61.746;16.106;2022-09-03T14:58:38;10.27;;;0.60;;
67100;SDS011;54019;61.746;16.106;2022-09-03T15:01:20;11.57;;;0.98;;
67100;SDS011;54019;61.746;16.106;2022-09-03T15:07:11;5.38;;;0.63;;
67100;SDS011;54019;61.746;16.106;2022-09-03T15:09:48;6.13;;;1.45;;
67100;SDS011;54019;61.746;16.106;2022-09-03T15:12:22;8.75;;;2.17;;
67100;SDS011;54019;61.746;16.106;2022-09-03T15:14:54;4.65;;;1.30;;
67100;SDS011;54019;61.746;16.106;2022-09-03T15:17:29;5.88;;;1.65;;